Aviation Digital Data Service (ADDS)

Output produced by METARs form (1313 UTC 10 July 2020)
found at http://www.aviationweather.gov/metar/data/
 
KHEZ 101256Z AUTO 25007KT 10SM FEW050 27/25 A3005 RMK AO2 SLP174 T02720250
KHEZ 101156Z AUTO 00000KT 7SM CLR 26/24 A3004 RMK AO2 SLP170 T02560244 10267 20250 53017
KHEZ 101056Z AUTO 22004KT 9SM CLR 25/24 A3002 RMK AO2 SLP163 T02500244
KHEZ 100956Z AUTO 00000KT 10SM CLR 26/24 A3001 RMK AO2 SLP158 T02560244
KHEZ 100856Z AUTO 22004KT 10SM CLR 26/24 A2999 RMK AO2 SLP153 T02560244 51008
KHEZ 100756Z AUTO 10SM CLR 26/24 A2998 RMK AO2 SLP150 T02610244
KHEZ 100656Z AUTO 22006KT 10SM CLR 27/24 A2999 RMK AO2 SLP151 T02670244
KHEZ 100556Z AUTO 22005KT 10SM CLR 27/24 A2997 RMK AO2 SLP145 T02670244 10328 20267 53011
KHEZ 100456Z AUTO 20003KT 10SM CLR 27/25 A2996 RMK AO2 SLP144 T02670250 403330244
KHEZ 100356Z AUTO 20004KT 10SM CLR 27/25 A2994 RMK AO2 SLP136 T02720250
KHEZ 100256Z AUTO 16004KT 10SM CLR 27/26 A2994 RMK AO2 SLP135 T02670256 55000
KHEZ 100156Z AUTO 00000KT 10SM CLR 28/26 A2993 RMK AO2 SLP133 T02780256
KHEZ 100056Z AUTO 17004KT 10SM CLR 29/26 A2992 RMK AO2 SLP128 T02940261
KHEZ 092356Z AUTO 22003KT 10SM CLR 32/25 A2994 RMK AO2 SLP134 T03220250 10333 20311 56007
KHEZ 092256Z AUTO 25005KT 10SM CLR 33/24 A2994 RMK AO2 SLP136 T03280244
KHEZ 092156Z AUTO 24007KT 10SM CLR 33/24 A2995 RMK AO2 SLP138 T03280244
KHEZ 092056Z AUTO 27007KT 10SM FEW037 SCT045 33/24 A2996 RMK AO2 SLP140 T03280244 56010
KHEZ 091956Z AUTO 23004KT 10SM FEW032 32/24 A2996 RMK AO2 SLP145 T03220244
KHEZ 091856Z AUTO 22006KT 10SM FEW032 32/26 A2997 RMK AO2 SLP145 T03220256
KHEZ 091756Z AUTO 24007KT 10SM SCT028 BKN037 32/25 A2999 RMK AO2 SLP152 T03170250 10317 20256 56001
KHEZ 091656Z AUTO 23007KT 10SM BKN024 30/24 A2999 RMK AO2 SLP153 T03000244
KHEZ 091556Z AUTO 24009KT 9SM FEW018 29/24 A2999 RMK AO2 SLP153 T02940244
KHEZ 091542Z AUTO 26008KT 10SM SCT018 29/24 A2999 RMK AO2
KHEZ 091456Z AUTO 22005KT 6SM HZ BKN016 28/24 A2999 RMK AO2 SLP152 T02780244 50004
KHEZ 091441Z AUTO 25009KT 9SM BKN016 BKN020 28/24 A2999 RMK AO2
KHEZ 091407Z AUTO 24008KT 10SM BKN012 OVC019 27/24 A2999 RMK AO2
KHEZ 091356Z AUTO 25006KT 9SM SCT012 BKN019 27/24 A2999 RMK AO2 SLP153 T02670244
KHEZ 091351Z AUTO 24008KT 10SM SCT012 BKN019 27/24 A2999 RMK AO2
KHEZ 091256Z AUTO 25009KT 8SM OVC014 26/24 A2998 RMK AO2 SLP148 T02610244
KHEZ 091236Z AUTO 25010KT 8SM BKN011 OVC014 26/24 A2998 RMK AO2 CIG 007V013
KHEZ 091156Z AUTO 23006KT 6SM BR BKN007 OVC011 26/24 A2997 RMK AO2 CIG 005V009 SLP145 7//// T02560244 10256 20244 53008
KHEZ 091056Z AUTO 22005KT 8SM OVC009 25/24 A2996 RMK AO2 SLP142 T02500244
KHEZ 090956Z AUTO 00000KT 7SM OVC009 25/24 A2995 RMK AO2 CIG 005V011 SLP138 T02500244
KHEZ 090909Z AUTO 20003KT 8SM BKN013 25/24 A2994 RMK AO2
KHEZ 090856Z AUTO 20003KT 8SM SCT011 25/24 A2994 RMK AO2 SLP136 T02500239 53003
KHEZ 090852Z AUTO 21004KT 8SM SCT011 24/24 A2994 RMK AO2
KHEZ 090836Z AUTO 20003KT 8SM BKN011 25/24 A2993 RMK AO2
KHEZ 090756Z AUTO 9SM BKN015 24/24 A2993 RMK AO2 SLP133 T02440239 $
KHEZ 090754Z AUTO 8SM BKN015 24/24 A2993 RMK AO2 $
KHEZ 090656Z AUTO 10SM CLR 25/24 A2994 RMK AO2 SLP136 T02500239
KHEZ 090556Z AUTO 19004KT 10SM CLR 25/24 A2995 RMK AO2 SLP139 T02500239 10261 20244 50005
KHEZ 090456Z AUTO 10SM CLR 25/24 A2995 RMK AO2 SLPNO T02500239
KHEZ 090356Z AUTO 10SM FEW041 24/24 A2995 RMK AO2 SLPNO T02440239
KHEZ 090256Z AUTO 00000KT 10SM CLR 24/24 A2993 RMK AO2 SLPNO T02440239 53001
KHEZ 090156Z AUTO 15005KT 10SM CLR 24/24 A2992 RMK AO2 SLPNO T02440239
KHEZ 090056Z AUTO 18003KT 10SM CLR 26/24 A2993 RMK AO2 LTG DSNT SW SLPNO T02560239
KHEZ 082356Z AUTO 21004KT 10SM FEW070 26/24 A2993 RMK AO2 LTG DSNT SW-NW SLPNO 6//// T02610239 10317 20233 55009
KHEZ 082256Z AUTO 00000KT 10SM CLR 27/23 A2993 RMK AO2 LTG DSNT SW-NW SLPNO T02720233
KHEZ 082156Z AUTO 05003KT 10SM CLR 25/23 A2995 RMK AO2 LTG DSNT SW TSE54RAB03E31 SLPNO P0014 T02500233
KHEZ 082056Z AUTO 21007KT 10SM VCTS FEW033 SCT041 28/26 A2996 RMK AO2 LTG DSNT SW AND W TSB31E47B51 SLPNO 6//// T02830256 55009
KHEZ 082051Z AUTO 20007KT 10SM VCTS FEW040 29/26 A2996 RMK AO2 LTG DSNT SW AND W TSB31E47B51
KHEZ 082037Z AUTO 20006KT 10SM VCTS CLR 29/26 A2995 RMK AO2 LTG DSNT SW AND W TSB31
KHEZ 081956Z AUTO 18003KT 10SM FEW048 26/24 A2995 RMK AO2 LTG DSNT ALQDS TSE11RAE03 SLPNO T02610239
KHEZ 081917Z AUTO 17003KT 10SM CLR 24/23 A2996 RMK AO2 LTG DSNT ALQDS TSE11RAE03
KHEZ 081856Z AUTO 18006KT 10SM -TSRA FEW024 SCT046 BKN070 24/23 A2998 RMK AO2 PK WND 23027/1830 LTG DSNT ALQDS TSB09RAB32 SLPNO T02390228 PNO $
KHEZ 081815Z AUTO VRB04KT 10SM VCTS FEW025 31/26 A2998 RMK AO2 LTG DSNT ALQDS TSB09
KHEZ 081756Z AUTO 20007KT 9SM FEW001 30/26 A2998 RMK AO2 LTG DSNT ALQDS TSB1657E12RAB32E42 SLPNO 6//// T03000256
KHEZ 081718Z AUTO 26006KT 9SM CLR A2999 RMK AO2 LTG DSNT ALQDS TSB1657E12 FZRANO $
KHEZ 081703Z AUTO 25004KT 10SM VCTS FEW060 A3000 RMK AO2 LTG DSNT NE-S TSB1657 FZRANO $
KHEZ 081656Z AUTO 25005KT 10SM FEW014 SCT023 SCT033 A2999 RMK AO2 LTG DSNT ALQDS TSE10B33E50RAB28E50 SLPNO FZRANO $
KHEZ 081649Z AUTO 26006KT 10SM VCTS -RA FEW018 SCT027 BKN060 A3000 RMK AO2 LTG DSNT ALQDS TSE10B33RAB28 FZRANO $
KHEZ 081639Z AUTO 27007KT 7SM VCTS -RA SCT016 BKN023 BKN033 A3000 RMK AO2 LTG DSNT SE AND S TSE10B33RAB28 FZRANO $
KHEZ 081616Z AUTO 25007KT 9SM SCT016 BKN023 BKN032 A3000 RMK AO2 LTG DSNT E AND S TSE10 FZRANO $
KHEZ 081556Z AUTO 23009KT 9SM VCTS BKN015 BKN020 OVC036 RMK AO2 TSB02E17B34RAB26E36 SLPNO FZRANO $
KHEZ 081535Z AUTO 23005KT 10SM -TSRA BKN015 OVC021 A3001 RMK AO2 TSB02E17B34RAB26 FZRANO $
KHEZ 081523Z AUTO 24007KT 9SM BKN013 OVC023 RMK AO2 TSB02E17 FZRANO $
KHEZ 081508Z AUTO 9SM VCTS BKN013 RMK AO2 TSB02 FZRANO $
KHEZ 081456Z AUTO 21005KT 10SM BKN013 A3001 RMK AO2 SLPNO 6//// 53007 FZRANO $
KHEZ 081435Z AUTO 20003KT 9SM OVC011 A3001 RMK AO2 LTG DSNT SE FZRANO $
KHEZ 081356Z AUTO 20004KT 9SM OVC007 A3000 RMK AO2 LTG DSNT S CIG 006V011 SLPNO FZRANO $
KHEZ 081318Z AUTO VRB04KT 8SM BKN007 OVC010 A3000 RMK AO2 CIG 004V008 FZRANO $
KHEZ 081303Z AUTO 20005KT 8SM OVC005 A3000 RMK AO2 CIG 003V008 FZRANO $
KHEZ 081256Z AUTO 20004KT 7SM OVC003 A2999 RMK AO2 CIG 003V008 SLPNO FZRANO $
KHEZ 081156Z AUTO 18005KT 5SM HZ OVC003 A2999 RMK AO2 SLPNO 6//// 7//// 51003 FZRANO $
KHEZ 081056Z AUTO 18006KT 5SM HZ OVC003 A2999 RMK AO2 SLPNO FZRANO $
KHEZ 080956Z AUTO 19006KT 6SM HZ OVC003 A2999 RMK AO2 SLPNO FZRANO $
KHEZ 080924Z AUTO 18007KT 6SM HZ OVC003 RMK AO2 FZRANO $
KHEZ 080856Z AUTO 17005KT 8SM OVC005 A2998 RMK AO2 SLPNO 6//// 57007 FZRANO $
KHEZ 080828Z AUTO 15004KT 10SM OVC005 A2998 RMK AO2 FZRANO $
KHEZ 080756Z AUTO 00000KT 10SM BKN007 BKN011 A2999 RMK AO2 SLPNO FZRANO $
KHEZ 080743Z AUTO 17003KT 10SM FEW007 A2998 RMK AO2 FZRANO $
KHEZ 080656Z AUTO 16004KT 10SM CLR A2999 RMK AO2 SLPNO FZRANO $
KHEZ 080556Z AUTO 14003KT 10SM CLR A3000 RMK AO2 SLPNO 6//// 50003 FZRANO $
KHEZ 080456Z AUTO 17003KT 10SM CLR A3001 RMK AO2 SLPNO FZRANO $
KHEZ 080356Z AUTO 10SM CLR A3000 RMK AO2 SLPNO FZRANO $
KHEZ 080256Z AUTO 15003KT 10SM CLR A2999 RMK AO2 SLPNO 6//// FZRANO $
KHEZ 080156Z AUTO 18003KT 10SM CLR RMK AO2 SLPNO FZRANO $
KHEZ 080056Z AUTO 17003KT 10SM CLR A2999 RMK AO2 SLPNO FZRANO $
KHEZ 072356Z AUTO 22004KT 10SM CLR A2999 RMK AO2 RAB2259E14 SLPNO P0000 6//// 55007 FZRANO $
KHEZ 072336Z AUTO 22004KT 10SM FEW024 A2998 RMK AO2 RAB2259E14 P0000 FZRANO $
KHEZ 072307Z AUTO 20006KT 10SM -RA SCT024 BKN029 BKN038 RMK AO2 RAB2259 P0000 FZRANO $
KHEZ 072256Z AUTO 20004KT 10SM FEW024 SCT028 BKN038 A2998 RMK AO2 SLPNO FZRANO $
KHEZ 072156Z AUTO 22005KT 10SM CLR A2998 RMK AO2 LTG DSNT W AND NW SLPNO FZRANO $
KHEZ 072056Z AUTO 22008KT 10SM FEW027 A3001 RMK AO2 SLPNO 6//// FZRANO $
KHEZ 071956Z AUTO VRB06KT 10SM SCT020 RMK AO2 SLPNO FZRANO $
KHEZ 071948Z AUTO 24008KT 10SM BKN020 RMK AO2 FZRANO $
KHEZ 071856Z AUTO 20003KT 10SM FEW012 A3002 RMK AO2 RAE38 SLPNO P0000 FZRANO $
KHEZ 071756Z AUTO 10SM -RA FEW016 RMK AO2 RAB45 SLPNO 6//// FZRANO $
KHEZ 071656Z AUTO 00000KT 10SM CLR A3005 RMK AO2 RAB1558E23 SLPNO P0000 FZRANO $
KHEZ 071556Z AUTO 31007KT 10SM FEW014 A3005 RMK AO2 SLPNO FZRANO $
KHEZ 071554Z AUTO 32005KT 10SM SCT014 A3005 RMK AO2 FZRANO $
KHEZ 071456Z AUTO 32006KT 10SM OVC010 A3006 RMK AO2 CIG 007V013 SLPNO 6//// FZRANO $
KHEZ 071443Z AUTO 31007KT 10SM OVC010 A3006 RMK AO2 CIG 006V013 FZRANO $
KHEZ 071402Z AUTO 25005KT 10SM BKN007 BKN027 OVC110 A3006 RMK AO2 FZRANO $
KHEZ 071356Z AUTO 27004KT 10SM FEW007 SCT032 BKN120 A3006 RMK AO2 LTG DSNT SE SLPNO FZRANO $
KHEZ 071353Z AUTO 26006KT 10SM FEW007 SCT090 BKN120 RMK AO2 LTG DSNT SE FZRANO $